Huvudsida
METAR-TAF:

METAR-TAF

Flygplatser :

Port Vila, Efate, Vanuatu

latitud: 17-42S, longitud: 168-18E, höjd: 20 m

Aktuellt väderrapport

Denna rapport gjordes för 1 timme och 13 minuter sedan, klockan 15:00 UTC
Vind 4 kt från ost
Temperatur 24°C
Fuktighet 100%
Tryck 1004 hPa
Sikt 10 km eller mer
Spridda moln på en höjd av 2000 ft

METAR: NVVV 141500Z 10004KT 9999 SCT020 24/24 Q1004 RMK NIL

Tid: 03:13 (16:13 UTC)

Väderprognos

Denna rapport gjordes för 6 timmar och 13 minuter sedan, klockan 10:00 UTC
Prognos gäller från 14 kl. 12 UTC till 15 kl. 12 UTC
Vind 2 kt varierande vindriktning
Sikt 10 km eller mer
Få moln på en höjd av 2500 ft

TAF: NVVV 141000Z 1412/1512 VRB02KT 9999 FEW025

Aktuella väderrapporter och prognoser från 4000 flygplatser (METAR- och TAF-rapporter).

De tillgängliga stationerna syns som gula och röda prickar på kartan.

För musen över prickarna för att se namnen på stationerna.

Klicka sedan för att få väderrapporter och prognoser.

För att ändra kartan: Klicka på de gröna knapparna med ett svart kors på för att zooma in; den gröna knappen med ett streck på för att zooma ut; eller på de gröna pilarna för angränsande kartor.


METAR-TAF: